createdAt,value
2023-01-19T00:01:41.670Z,10.25
2023-01-19T00:05:44.449Z,6.65
2023-01-19T00:09:46.518Z,9.63
2023-01-19T00:13:51.812Z,6.57
2023-01-19T00:17:53.836Z,9.38
2023-01-19T00:21:56.079Z,7.63
2023-01-19T00:25:58.157Z,9.35
2023-01-19T00:30:00.223Z,7.35
2023-01-19T00:34:03.179Z,9.38
2023-01-19T00:38:05.235Z,6.82
2023-01-19T00:42:27.384Z,8.55
2023-01-19T00:46:29.378Z,12.20
2023-01-19T00:50:32.468Z,10.00
2023-01-19T00:54:34.505Z,9.43
2023-01-19T00:58:36.520Z,7.95
2023-01-19T01:02:40.103Z,12.23
2023-01-19T01:06:42.226Z,6.53
2023-01-19T01:10:44.243Z,8.10
2023-01-19T01:14:46.288Z,7.60
2023-01-19T01:18:48.271Z,6.75
2023-01-19T01:22:52.315Z,9.15
2023-01-19T01:26:54.361Z,10.00
2023-01-19T01:30:57.065Z,10.27
2023-01-19T01:34:59.339Z,12.07
2023-01-19T01:39:01.413Z,12.32
2023-01-19T01:43:03.610Z,9.75
2023-01-19T01:47:05.670Z,10.73
2023-01-19T01:51:24.894Z,9.65
2023-01-19T01:55:29.207Z,9.50
2023-01-19T01:59:39.036Z,10.55
2023-01-19T02:03:41.396Z,9.60
2023-01-19T02:08:12.115Z,10.18
2023-01-19T02:12:33.311Z,12.68
2023-01-19T02:16:37.486Z,9.57
2023-01-19T02:20:42.795Z,11.02
2023-01-19T02:24:45.000Z,9.20
2023-01-19T02:28:53.296Z,8.20
2023-01-19T02:32:55.421Z,9.88
2023-01-19T02:37:03.349Z,7.97
2023-01-19T02:41:07.623Z,9.77
2023-01-19T02:45:12.648Z,10.02
2023-01-19T02:49:14.761Z,9.07
2023-01-19T02:53:57.775Z,9.45
2023-01-19T02:58:04.340Z,7.95
2023-01-19T03:02:28.815Z,9.88
2023-01-19T03:06:57.138Z,7.70
2023-01-19T03:11:03.750Z,11.32
2023-01-19T03:15:17.479Z,12.88
2023-01-19T03:19:29.628Z,8.93
2023-01-19T03:23:35.020Z,8.65
2023-01-19T03:27:41.167Z,7.65
2023-01-19T03:31:46.029Z,7.90
2023-01-19T03:35:53.027Z,9.90
2023-01-19T03:39:55.859Z,6.25
2023-01-19T03:43:59.003Z,8.05
2023-01-19T03:48:01.487Z,7.68
2023-01-19T03:52:04.443Z,7.75
2023-01-19T03:56:11.777Z,5.75
2023-01-19T04:00:14.475Z,5.78
2023-01-19T04:04:16.803Z,5.95
2023-01-19T04:08:19.287Z,6.70
2023-01-19T04:12:21.309Z,8.23
2023-01-19T04:16:23.534Z,8.02
2023-01-19T04:20:27.240Z,9.88
2023-01-19T04:24:29.269Z,8.60
2023-01-19T04:28:32.426Z,9.77
2023-01-19T04:32:34.469Z,8.27
2023-01-19T04:36:36.529Z,8.88
2023-01-19T04:40:38.776Z,8.55
2023-01-19T04:44:40.802Z,10.32
2023-01-19T04:48:42.850Z,9.18
2023-01-19T04:52:46.027Z,8.02
2023-01-19T04:56:48.879Z,8.90
2023-01-19T05:00:52.196Z,8.85
2023-01-19T05:04:54.407Z,7.95
2023-01-19T05:08:56.413Z,11.05
2023-01-19T05:12:58.809Z,9.27
2023-01-19T05:17:03.137Z,7.95
2023-01-19T05:21:06.165Z,7.63
2023-01-19T05:25:08.785Z,8.73
2023-01-19T05:29:10.823Z,9.18
2023-01-19T05:33:12.855Z,11.90
2023-01-19T05:37:15.175Z,8.07
2023-01-19T05:41:17.755Z,7.07
2023-01-19T05:45:19.793Z,6.90
2023-01-19T05:49:21.853Z,6.97
2023-01-19T05:53:23.902Z,6.32
2023-01-19T05:57:25.897Z,6.35
2023-01-19T06:01:28.352Z,6.72
2023-01-19T06:05:30.449Z,9.77
2023-01-19T06:09:33.313Z,6.13
2023-01-19T06:13:35.454Z,7.68
2023-01-19T06:17:37.554Z,6.40
2023-01-19T06:21:39.618Z,8.70
2023-01-19T06:25:41.619Z,9.57
2023-01-19T06:29:43.633Z,8.80
2023-01-19T06:33:45.729Z,9.05
2023-01-19T06:37:47.897Z,12.07
2023-01-19T06:41:50.217Z,11.07
2023-01-19T06:45:52.748Z,12.60
2023-01-19T06:49:54.850Z,12.32
2023-01-19T06:53:57.295Z,14.15
2023-01-19T06:57:59.661Z,13.85
2023-01-19T07:02:26.113Z,12.80
2023-01-19T07:06:24.076Z,15.60
2023-01-19T07:10:26.080Z,15.27
2023-01-19T07:14:49.435Z,12.80
2023-01-19T07:18:51.589Z,12.23
2023-01-19T07:22:56.996Z,9.90
2023-01-19T07:26:59.713Z,10.70
2023-01-19T07:31:01.855Z,10.80
2023-01-19T07:35:04.692Z,6.20
2023-01-19T07:39:06.726Z,6.30
2023-01-19T07:43:08.885Z,7.85
2023-01-19T07:47:12.597Z,11.90
2023-01-19T07:51:18.681Z,10.57
2023-01-19T07:55:21.647Z,12.03
2023-01-19T07:59:23.704Z,8.93
2023-01-19T08:03:25.746Z,9.07
2023-01-19T08:07:27.776Z,6.72
2023-01-19T08:11:29.812Z,6.38
2023-01-19T08:15:31.889Z,6.60
2023-01-19T08:19:34.079Z,4.93
2023-01-19T08:23:36.135Z,7.22
2023-01-19T08:27:38.263Z,7.30
2023-01-19T08:31:40.328Z,5.75
2023-01-19T08:35:47.205Z,6.13
2023-01-19T08:39:49.241Z,6.13
2023-01-19T08:43:51.347Z,6.30
2023-01-19T08:47:55.982Z,8.10
2023-01-19T08:51:57.991Z,5.95
2023-01-19T08:56:01.210Z,6.18
2023-01-19T09:00:04.435Z,5.47
2023-01-19T09:04:06.541Z,4.65
2023-01-19T09:08:13.910Z,6.32
2023-01-19T09:16:18.518Z,12.15
2023-01-19T09:20:20.670Z,18.52
2023-01-19T09:24:22.708Z,23.25
2023-01-19T09:28:25.354Z,9.68
2023-01-19T09:32:27.378Z,6.05
2023-01-19T09:36:30.081Z,5.40
2023-01-19T09:40:32.163Z,6.43
2023-01-19T09:44:35.508Z,5.25
2023-01-19T09:48:58.609Z,6.32
2023-01-19T09:53:13.930Z,7.55
2023-01-19T09:57:16.150Z,7.95
2023-01-19T10:01:24.449Z,11.05
2023-01-19T10:05:45.145Z,5.40
2023-01-19T10:10:19.790Z,6.80
2023-01-19T10:14:48.392Z,5.70
2023-01-19T10:18:54.765Z,21.90
2023-01-19T10:22:59.072Z,14.85
2023-01-19T10:27:01.842Z,5.57
2023-01-19T10:31:06.260Z,7.05
2023-01-19T10:35:24.645Z,4.43
2023-01-19T10:39:26.873Z,3.92
2023-01-19T10:43:36.463Z,4.47
2023-01-19T10:47:40.037Z,4.32
2023-01-19T10:51:48.892Z,4.63
2023-01-19T10:56:11.089Z,3.40
2023-01-19T11:00:30.999Z,5.18
2023-01-19T11:04:33.176Z,3.75
2023-01-19T11:08:35.166Z,3.72
2023-01-19T11:12:42.648Z,3.53
2023-01-19T11:16:56.768Z,3.90
2023-01-19T11:21:06.401Z,2.80
2023-01-19T11:25:25.886Z,3.95
2023-01-19T11:29:27.929Z,3.97
2023-01-19T11:33:36.388Z,3.30
2023-01-19T11:37:39.564Z,4.35
2023-01-19T11:41:41.868Z,4.57
2023-01-19T11:45:45.712Z,2.63
2023-01-19T11:50:04.608Z,4.80
2023-01-19T11:54:19.742Z,2.95
2023-01-19T11:58:22.965Z,2.78
2023-01-19T12:02:46.803Z,2.20
2023-01-19T12:06:55.205Z,2.90
2023-01-19T12:11:00.166Z,2.70
2023-01-19T12:15:15.092Z,3.78
2023-01-19T12:19:21.234Z,2.60
2023-01-19T12:23:45.367Z,4.70
2023-01-19T12:27:49.405Z,4.00
2023-01-19T12:32:14.651Z,7.25
2023-01-19T12:36:16.619Z,3.50
2023-01-19T12:40:28.985Z,3.53
2023-01-19T12:44:34.155Z,3.70
2023-01-19T12:48:41.947Z,4.13
2023-01-19T12:52:57.220Z,3.47
2023-01-19T12:57:06.053Z,4.53
2023-01-19T13:01:21.178Z,4.30
2023-01-19T13:05:33.261Z,4.15
2023-01-19T13:09:37.913Z,4.50
2023-01-19T13:14:06.234Z,4.97
2023-01-19T13:18:09.324Z,4.90
2023-01-19T13:23:12.954Z,5.22
2023-01-19T13:27:15.254Z,7.85
2023-01-19T13:31:18.730Z,7.18
2023-01-19T13:35:22.313Z,6.97
2023-01-19T13:39:27.743Z,4.63
2023-01-19T13:43:36.516Z,8.02
2023-01-19T13:47:45.205Z,7.35
2023-01-19T13:52:14.191Z,5.03
2023-01-19T13:56:21.982Z,6.05
2023-01-19T14:00:29.204Z,4.10
2023-01-19T14:08:34.285Z,9.13
2023-01-19T14:12:43.523Z,9.80
2023-01-19T14:16:50.523Z,16.13
2023-01-19T14:20:53.602Z,11.45
2023-01-19T14:24:55.577Z,8.73
2023-01-19T14:28:57.719Z,16.65
2023-01-19T14:32:59.705Z,11.43
2023-01-19T14:37:04.045Z,12.98
2023-01-19T14:41:06.305Z,9.68
2023-01-19T14:45:17.488Z,6.18
2023-01-19T14:49:26.626Z,5.93
2023-01-19T14:53:30.038Z,6.60
2023-01-19T14:57:35.384Z,5.35
2023-01-19T15:01:37.665Z,6.10
2023-01-19T15:05:42.810Z,5.13
2023-01-19T15:09:47.023Z,10.15
2023-01-19T15:13:49.933Z,7.95
2023-01-19T15:17:54.170Z,9.43
2023-01-19T15:21:58.200Z,7.45
2023-01-19T15:26:02.103Z,6.88
2023-01-19T15:30:13.012Z,8.95
2023-01-19T15:34:15.139Z,9.02
2023-01-19T15:38:17.319Z,8.77
2023-01-19T15:42:19.318Z,16.63
2023-01-19T15:46:22.532Z,7.88
2023-01-19T15:50:25.905Z,14.93
2023-01-19T15:54:27.922Z,14.63
2023-01-19T15:58:29.908Z,18.63
2023-01-19T16:02:35.341Z,12.05
2023-01-19T16:06:37.818Z,8.50
2023-01-19T16:10:41.746Z,8.38
2023-01-19T16:14:43.780Z,8.27
2023-01-19T16:18:46.180Z,12.68
2023-01-19T16:22:48.233Z,6.40
2023-01-19T16:26:50.284Z,9.23
2023-01-19T16:30:52.686Z,4.88
2023-01-19T16:34:54.879Z,18.85
2023-01-19T16:39:06.147Z,13.68
2023-01-19T16:43:08.194Z,13.18
2023-01-19T16:47:10.260Z,9.65
2023-01-19T16:51:12.258Z,14.60
2023-01-19T16:55:14.308Z,9.82
2023-01-19T16:59:17.422Z,9.82
2023-01-19T17:03:19.467Z,7.97
2023-01-19T17:07:21.484Z,11.43
2023-01-19T17:11:29.349Z,9.10
2023-01-19T17:15:31.528Z,9.05
2023-01-19T17:19:33.547Z,12.13
2023-01-19T17:23:37.431Z,26.58
2023-01-19T17:27:39.440Z,14.80
2023-01-19T17:31:41.542Z,15.55
2023-01-19T17:35:43.663Z,11.02
2023-01-19T17:39:46.629Z,9.85
2023-01-19T17:43:50.278Z,10.35
2023-01-19T17:47:52.276Z,7.78
2023-01-19T17:51:55.662Z,9.25
2023-01-19T17:56:05.081Z,7.35
2023-01-19T18:00:08.160Z,7.78
2023-01-19T18:04:16.168Z,12.63
2023-01-19T18:08:18.171Z,12.68
2023-01-19T18:12:20.315Z,12.45
2023-01-19T18:16:25.427Z,14.20
2023-01-19T18:20:27.467Z,37.30
2023-01-19T18:24:29.552Z,28.42
2023-01-19T18:28:32.057Z,25.13
2023-01-19T18:32:58.372Z,29.20
2023-01-19T18:37:00.459Z,20.92
2023-01-19T18:41:05.029Z,11.95
2023-01-19T18:45:07.602Z,11.85
2023-01-19T18:49:10.067Z,8.50
2023-01-19T18:53:12.152Z,9.93
2023-01-19T18:57:14.492Z,9.68
2023-01-19T19:01:18.819Z,10.10
2023-01-19T19:05:21.329Z,13.00
2023-01-19T19:09:23.425Z,12.50
2023-01-19T19:13:25.483Z,13.02
2023-01-19T19:17:27.467Z,11.68
2023-01-19T19:21:29.530Z,10.35
2023-01-19T19:25:32.601Z,9.73
2023-01-19T19:29:35.068Z,12.40
2023-01-19T19:33:38.145Z,17.90
2023-01-19T19:37:40.094Z,17.63
2023-01-19T19:41:42.517Z,13.30
2023-01-19T19:45:44.789Z,11.70
2023-01-19T19:49:46.772Z,11.60
2023-01-19T19:53:51.474Z,15.05
2023-01-19T19:57:54.762Z,14.68
2023-01-19T20:01:56.883Z,10.95
2023-01-19T20:06:07.402Z,8.88
2023-01-19T20:10:10.280Z,9.98
2023-01-19T20:14:14.135Z,17.27
2023-01-19T20:18:16.292Z,12.50
2023-01-19T20:22:18.357Z,10.30
2023-01-19T20:26:26.669Z,14.90
2023-01-19T20:30:28.855Z,10.10
2023-01-19T20:36:32.579Z,9.18
2023-01-19T20:40:34.756Z,9.95
2023-01-19T20:44:37.312Z,11.73
2023-01-19T20:48:39.619Z,10.35
2023-01-19T20:52:41.600Z,11.07
2023-01-19T20:56:43.808Z,9.25
2023-01-19T21:00:45.922Z,8.38
2023-01-19T21:04:48.056Z,9.18
2023-01-19T21:08:50.164Z,14.25
2023-01-19T21:12:52.262Z,15.57
2023-01-19T21:16:58.211Z,12.07
2023-01-19T21:21:00.278Z,9.98
2023-01-19T21:25:02.291Z,10.52
2023-01-19T21:29:04.542Z,10.10
2023-01-19T21:33:07.712Z,10.45
2023-01-19T21:37:09.908Z,11.07
2023-01-19T21:41:12.662Z,16.50
2023-01-19T21:45:15.095Z,13.95
2023-01-19T21:49:19.678Z,14.15
2023-01-19T21:53:21.655Z,11.80
2023-01-19T21:57:23.711Z,13.55
2023-01-19T22:01:25.878Z,17.95
2023-01-19T22:05:28.011Z,22.90
2023-01-19T22:09:30.089Z,23.88
2023-01-19T22:13:33.339Z,24.98
2023-01-19T22:17:36.096Z,18.83
2023-01-19T22:21:38.112Z,18.83
2023-01-19T22:25:40.118Z,20.40
2023-01-19T22:29:42.427Z,28.30
2023-01-19T22:33:44.915Z,27.58
2023-01-19T22:37:46.958Z,15.75
2023-01-19T22:41:48.998Z,10.13
2023-01-19T22:45:51.014Z,9.15
2023-01-19T22:49:53.053Z,9.00
2023-01-19T22:53:55.280Z,7.57
2023-01-19T22:57:57.308Z,7.50
2023-01-19T23:01:59.405Z,6.93
2023-01-19T23:06:10.668Z,9.82
2023-01-19T23:10:12.834Z,7.72
2023-01-19T23:14:17.973Z,7.97
2023-01-19T23:18:19.996Z,12.02
2023-01-19T23:22:22.033Z,10.60
2023-01-19T23:26:25.042Z,10.35
2023-01-19T23:30:27.107Z,10.65
2023-01-19T23:34:29.125Z,10.70
2023-01-19T23:38:31.164Z,26.83
2023-01-19T23:42:33.191Z,51.75
2023-01-19T23:46:35.523Z,23.73
2023-01-19T23:50:40.661Z,16.58
2023-01-19T23:54:42.701Z,19.35
2023-01-19T23:58:46.443Z,15.02
